Time;durP1;ratioP1;P1;durP2;ratioP2;P2;SDS_P1;SDS_P2;PMS_P1;PMS_P2;Temp;Humidity;BMP_temperature;BMP_pressure;BME280_temperature;BME280_humidity;BME280_pressure;Samples;Min_cycle;Max_cycle;Signal;HPM_P1;HPM_P2
2021/12/01 00:01:41;;;;;;;40.37;22.53;;;;;;;8.94;71.75;101463.28;5063715;28;20484;-67
2021/12/01 00:04:08;;;;;;;39.00;22.73;;;;;;;8.96;71.84;101465.84;5063302;28;20049;-65
2021/12/01 00:06:36;;;;;;;39.57;20.83;;;;;;;8.98;71.36;101466.41;5068566;28;20040;-63
2021/12/01 00:09:04;;;;;;;35.60;20.23;;;;;;;8.99;71.33;101470.88;5068042;28;20563;-61
2021/12/01 00:11:31;;;;;;;37.57;20.67;;;;;;;8.87;70.75;101443.09;5064447;28;20080;-62
2021/12/01 00:13:58;;;;;;;36.23;20.33;;;;;;;9.01;70.79;101461.19;5069640;28;20136;-60
2021/12/01 00:16:25;;;;;;;37.27;19.57;;;;;;;8.90;70.88;101441.75;5050187;28;20127;-61
2021/12/01 00:18:52;;;;;;;40.63;21.03;;;;;;;8.67;70.71;101400.88;5066801;28;22100;-63
2021/12/01 00:21:19;;;;;;;33.90;18.97;;;;;;;9.04;70.88;101471.00;5067957;28;20072;-64
2021/12/01 00:23:45;;;;;;;33.13;20.03;;;;;;;9.02;70.99;101473.19;5055654;28;20067;-63
2021/12/01 00:26:12;;;;;;;35.97;19.97;;;;;;;9.02;70.95;101476.84;5055083;28;20044;-60
2021/12/01 00:28:39;;;;;;;31.97;17.63;;;;;;;8.89;70.80;101456.75;5070795;28;20513;-64
2021/12/01 00:31:06;;;;;;;34.67;19.00;;;;;;;8.99;70.92;101457.81;5071113;28;20102;-63
2021/12/01 00:33:34;;;;;;;31.17;17.43;;;;;;;8.92;71.03;101457.13;5070805;28;20044;-61
2021/12/01 00:36:01;;;;;;;35.43;17.90;;;;;;;8.75;71.92;101451.50;5056457;28;20052;-61
2021/12/01 00:38:29;;;;;;;31.93;18.60;;;;;;;8.61;72.09;101436.13;5075910;28;20052;-62
2021/12/01 00:40:56;;;;;;;31.67;17.90;;;;;;;8.63;72.35;101447.03;5073442;28;20075;-62
2021/12/01 00:43:25;;;;;;;34.30;18.13;;;;;;;8.61;72.48;101452.00;5070892;28;20045;-62
2021/12/01 00:45:56;;;;;;;26.00;17.03;;;;;;;8.52;72.46;101435.69;5073762;28;20067;-62
2021/12/01 00:48:24;;;;;;;30.43;17.83;;;;;;;8.58;72.25;101436.66;5071909;28;20076;-61
2021/12/01 00:50:51;;;;;;;27.93;14.67;;;;;;;8.39;73.03;101404.47;5069047;28;20040;-62
2021/12/01 00:53:19;;;;;;;31.03;16.37;;;;;;;8.50;73.08;101425.88;5075445;28;22910;-62
2021/12/01 00:55:46;;;;;;;32.73;17.43;;;;;;;8.44;73.02;101426.84;5071313;28;20052;-62
2021/12/01 00:58:14;;;;;;;39.17;18.97;;;;;;;8.12;73.04;101374.38;5070795;28;20140;-63
2021/12/01 01:00:41;;;;;;;32.97;19.30;;;;;;;8.47;72.53;101424.41;5052201;28;20133;-61
2021/12/01 01:03:09;;;;;;;33.40;18.83;;;;;;;8.49;72.11;101415.84;5074510;28;20087;-62
2021/12/01 01:05:36;;;;;;;32.27;18.50;;;;;;;8.64;71.72;101430.06;5071402;28;20052;-63
2021/12/01 01:08:04;;;;;;;31.17;19.37;;;;;;;8.69;71.43;101412.66;5075743;28;20048;-62
2021/12/01 01:18:43;;;;;;;39.23;20.30;;;;;;;9.06;70.12;101418.69;5057963;28;20045;-61
2021/12/01 01:21:11;;;;;;;43.83;19.83;;;;;;;9.01;70.31;101416.63;5060961;28;20049;-62
2021/12/01 01:23:39;;;;;;;38.90;20.47;;;;;;;8.76;70.81;101391.91;5069873;28;20068;-60
2021/12/01 01:26:10;;;;;;;37.03;21.60;;;;;;;8.84;71.01;101400.94;5071002;28;20532;-59
2021/12/01 01:28:37;;;;;;;37.90;19.13;;;;;;;8.75;71.64;101412.50;5074288;28;20072;-59
2021/12/01 01:31:04;;;;;;;32.40;19.60;;;;;;;8.72;71.75;101410.22;5072225;28;20463;-62
2021/12/01 01:33:31;;;;;;;36.40;18.80;;;;;;;8.66;72.12;101413.97;5069866;28;20403;-63
2021/12/01 01:35:58;;;;;;;30.60;18.10;;;;;;;8.61;72.42;101408.28;5068285;28;20547;-61
2021/12/01 01:38:25;;;;;;;35.47;19.13;;;;;;;8.56;72.45;101402.63;5070055;28;20127;-60
2021/12/01 01:40:52;;;;;;;37.87;18.43;;;;;;;8.43;72.43;101394.53;5071355;28;20067;-60
2021/12/01 01:43:19;;;;;;;36.37;19.10;;;;;;;8.39;72.33;101385.00;5035125;28;20127;-60
2021/12/01 01:45:46;;;;;;;35.90;17.97;;;;;;;8.40;72.40;101404.22;5067289;28;20067;-65
2021/12/01 01:48:14;;;;;;;32.00;18.53;;;;;;;8.31;72.60;101395.41;5069962;28;20068;-66
2021/12/01 01:50:43;;;;;;;33.23;19.47;;;;;;;8.29;72.26;101397.56;5071727;28;20079;-66
2021/12/01 01:53:16;;;;;;;34.00;17.27;;;;;;;8.28;72.47;101400.59;5069410;28;20045;-65
2021/12/01 01:55:47;;;;;;;32.90;19.67;;;;;;;8.24;72.40;101397.47;5069212;28;20072;-66
2021/12/01 01:58:16;;;;;;;37.88;19.85;;;;;;;8.22;72.35;101404.34;5073271;28;20575;-66
2021/12/01 02:00:51;;;;;;;34.90;17.88;;;;;;;8.21;72.38;101400.75;5067862;28;20063;-67
2021/12/01 02:03:21;;;;;;;37.70;19.60;;;;;;;8.10;72.54;101398.78;5073162;28;20510;-63
2021/12/01 02:05:49;;;;;;;38.40;19.42;;;;;;;8.09;72.68;101408.25;5073919;28;20459;-64
2021/12/01 02:08:18;;;;;;;38.87;19.07;;;;;;;8.04;72.89;101422.03;5053738;28;20136;-66
2021/12/01 02:10:49;;;;;;;44.60;20.93;;;;;;;7.91;73.08;101400.03;5067204;28;20125;-67
2021/12/01 02:13:18;;;;;;;33.43;18.60;;;;;;;7.91;73.20;101402.81;5054524;28;20328;-65
2021/12/01 02:15:49;;;;;;;35.03;19.57;;;;;;;7.91;73.07;101419.50;5067721;28;20075;-65
2021/12/01 02:18:16;;;;;;;30.27;18.33;;;;;;;7.76;73.24;101397.72;5070174;28;20079;-67
2021/12/01 02:21:03;;;;;;;31.00;16.10;;;;;;;7.78;73.83;101406.69;5077057;28;20094;-62
2021/12/01 02:23:31;;;;;;;34.57;15.20;;;;;;;7.77;73.50;101405.00;5073070;28;20131;-68
2021/12/01 02:25:58;;;;;;;27.43;16.00;;;;;;;7.78;73.70;101407.53;5060880;28;20077;-67
2021/12/01 02:28:25;;;;;;;31.63;16.07;;;;;;;7.79;73.93;101402.78;5071626;28;20127;-61
2021/12/01 02:30:52;;;;;;;22.13;12.50;;;;;;;7.74;74.46;101400.75;5078865;28;20140;-63
2021/12/01 02:33:19;;;;;;;26.87;14.47;;;;;;;7.70;74.68;101393.97;5076950;28;20530;-62
2021/12/01 02:35:46;;;;;;;32.97;16.20;;;;;;;7.67;74.83;101393.63;5071776;28;20144;-62
2021/12/01 02:38:13;;;;;;;23.37;13.57;;;;;;;7.74;74.67;101392.41;5078491;28;20048;-64
2021/12/01 02:40:40;;;;;;;26.97;16.33;;;;;;;7.71;74.96;101389.28;5079570;28;20131;-64
2021/12/01 02:43:07;;;;;;;22.73;13.67;;;;;;;7.68;75.49;101393.38;5077906;28;20102;-64
2021/12/01 02:45:34;;;;;;;26.07;12.53;;;;;;;7.69;75.36;101386.75;5075114;28;20086;-61
2021/12/01 02:48:02;;;;;;;13.10;8.93;;;;;;;7.57;75.71;101371.97;5069547;28;20127;-60
2021/12/01 02:50:29;;;;;;;17.00;11.13;;;;;;;7.61;75.52;101373.19;5064276;28;20138;-60
2021/12/01 02:52:55;;;;;;;20.07;12.07;;;;;;;7.67;75.30;101382.50;5059096;28;20123;-64
2021/12/01 02:55:27;;;;;;;35.80;15.97;;;;;;;7.66;75.33;101383.56;5080609;28;20464;-62
2021/12/01 02:57:55;;;;;;;17.37;12.63;;;;;;;7.61;75.62;101381.53;5071536;28;20151;-62
2021/12/01 03:00:23;;;;;;;13.83;10.83;;;;;;;7.62;75.41;101374.88;5072921;28;20787;-60
2021/12/01 03:02:52;;;;;;;25.57;14.83;;;;;;;7.63;75.41;101370.19;5079049;28;20044;-59
2021/12/01 03:05:20;;;;;;;20.65;12.77;;;;;;;7.53;75.44;101370.78;5075196;28;20094;-60
2021/12/01 03:07:47;;;;;;;27.23;16.83;;;;;;;7.67;75.75;101388.91;5072016;28;20079;-60
2021/12/01 03:10:15;;;;;;;21.43;15.10;;;;;;;7.53;75.67;101370.78;5071836;28;20104;-60
2021/12/01 03:12:42;;;;;;;34.63;14.70;;;;;;;7.43;75.87;101351.06;5067685;28;20146;-61
2021/12/01 03:15:11;;;;;;;25.93;15.13;;;;;;;7.57;76.37;101374.75;5072389;28;20072;-59
2021/12/01 03:17:38;;;;;;;29.73;19.23;;;;;;;7.51;76.01;101371.00;5071143;28;20080;-61
2021/12/01 03:20:10;;;;;;;26.17;14.17;;;;;;;7.50;76.29;101365.69;5054944;28;20052;-62
2021/12/01 03:22:37;;;;;;;36.10;17.43;;;;;;;7.50;76.07;101360.13;5073648;28;20131;-62
2021/12/01 03:25:13;;;;;;;33.73;16.90;;;;;;;7.48;76.16;101353.97;5065714;28;20139;-59
2021/12/01 03:27:40;;;;;;;26.83;16.27;;;;;;;7.65;75.81;101373.53;5054270;28;20110;-62
2021/12/01 03:30:09;;;;;;;19.13;12.10;;;;;;;7.66;75.78;101367.75;5074776;28;20551;-61
2021/12/01 03:32:37;;;;;;;25.33;14.80;;;;;;;7.48;75.79;101328.94;5073260;28;20095;-60
2021/12/01 03:35:07;;;;;;;26.23;14.67;;;;;;;7.67;75.80;101363.88;5071852;28;20131;-60
2021/12/01 03:37:35;;;;;;;22.33;14.20;;;;;;;7.69;75.32;101353.38;5070394;28;20057;-60
2021/12/01 03:40:03;;;;;;;32.40;19.63;;;;;;;7.71;74.96;101342.84;5071927;28;20147;-60
2021/12/01 03:42:30;;;;;;;18.60;11.60;;;;;;;7.68;75.41;101345.25;5070678;28;20057;-60
2021/12/01 03:44:57;;;;;;;28.47;16.13;;;;;;;7.65;75.26;101354.94;5057550;28;20135;-58
2021/12/01 03:47:26;;;;;;;34.63;16.50;;;;;;;7.73;75.10;101354.59;5078453;28;20123;-61
2021/12/01 03:49:54;;;;;;;30.33;19.07;;;;;;;7.80;74.74;101344.19;5054466;28;20079;-60
2021/12/01 03:52:22;;;;;;;31.27;18.37;;;;;;;7.76;74.58;101340.19;5064926;28;20052;-59
2021/12/01 03:54:51;;;;;;;35.57;19.73;;;;;;;7.90;74.08;101338.00;5079767;28;20067;-61
2021/12/01 03:57:17;;;;;;;25.67;15.73;;;;;;;7.91;74.04;101327.72;5070178;28;20170;-60
2021/12/01 03:59:45;;;;;;;20.90;12.83;;;;;;;7.71;74.52;101317.81;5053985;28;20048;-60
2021/12/01 04:02:12;;;;;;;30.30;14.57;;;;;;;7.60;74.83;101325.09;5074407;28;20083;-61
2021/12/01 04:04:39;;;;;;;15.10;11.20;;;;;;;7.46;74.79;101303.34;5070017;28;20067;-61
2021/12/01 04:07:06;;;;;;;31.87;18.90;;;;;;;7.54;74.98;101323.28;5067456;28;20543;-61
2021/12/01 04:09:34;;;;;;;9.23;5.33;;;;;;;7.41;75.62;101311.53;5078554;28;20128;-60
2021/12/01 04:12:02;;;;;;;21.77;13.13;;;;;;;7.32;75.57;101295.25;5079910;28;20583;-59
2021/12/01 04:14:28;;;;;;;11.03;7.80;;;;;;;7.46;76.03;101325.56;5064565;28;20066;-59
2021/12/01 04:16:55;;;;;;;19.53;11.57;;;;;;;7.16;76.00;101270.94;5071169;28;20068;-59
2021/12/01 04:19:22;;;;;;;10.10;6.20;;;;;;;7.23;76.36;101282.78;5051662;28;20171;-59
2021/12/01 04:21:49;;;;;;;15.50;9.07;;;;;;;7.47;76.05;101316.16;5073577;28;20139;-60
2021/12/01 04:24:17;;;;;;;17.87;8.07;;;;;;;7.45;76.22;101312.75;5073234;28;20131;-58
2021/12/01 04:26:43;;;;;;;16.53;9.13;;;;;;;7.45;76.00;101313.59;5070076;28;20127;-58
2021/12/01 04:29:11;;;;;;;29.80;15.83;;;;;;;7.38;76.05;101300.91;5070938;28;20068;-59
2021/12/01 04:31:40;;;;;;;16.07;8.57;;;;;;;7.30;76.17;101289.06;5068999;28;20087;-58
2021/12/01 04:34:07;;;;;;;13.33;10.10;;;;;;;7.50;75.84;101307.31;5070213;28;20139;-59
2021/12/01 04:36:41;;;;;;;32.03;16.90;;;;;;;7.56;75.71;101301.66;5073864;28;20123;-59
2021/12/01 04:39:11;;;;;;;25.00;13.77;;;;;;;7.56;75.50;101298.88;5079021;28;20055;-58
2021/12/01 04:41:40;;;;;;;;;;;;;;;7.52;75.69;101296.78;5071893;28;20072;-58
2021/12/01 04:44:14;;;;;;;16.20;9.97;;;;;;;7.47;75.52;101305.03;5056825;28;19966;-59
2021/12/01 04:46:44;;;;;;;27.17;15.23;;;;;;;7.44;75.61;101297.16;5076415;28;20488;-56
2021/12/01 04:49:14;;;;;;;20.90;13.35;;;;;;;7.46;75.47;101281.94;5070877;28;20072;-57
2021/12/01 04:51:42;;;;;;;31.98;17.00;;;;;;;7.51;75.61;101284.84;5067533;28;20083;-57
2021/12/01 04:54:10;;;;;;;20.63;11.40;;;;;;;7.49;75.62;101272.28;5051833;28;20044;-58
2021/12/01 04:56:37;;;;;;;17.73;8.30;;;;;;;7.30;75.93;101255.72;5083165;28;20041;-58
2021/12/01 04:59:05;;;;;;;9.27;7.20;;;;;;;7.38;76.20;101267.56;5072015;28;20068;-60
2021/12/01 05:01:35;;;;;;;13.65;8.60;;;;;;;7.41;76.27;101275.41;5074019;28;20045;-59
2021/12/01 05:04:03;;;;;;;17.30;10.57;;;;;;;7.45;76.06;101273.84;5071781;28;20044;-58
2021/12/01 05:06:31;;;;;;;28.07;15.10;;;;;;;7.20;75.61;101213.81;5072730;28;20045;-59
2021/12/01 05:08:58;;;;;;;31.23;16.03;;;;;;;7.77;75.19;101291.00;5080760;28;20044;-57
2021/12/01 05:11:25;;;;;;;26.07;15.30;;;;;;;7.79;75.29;101286.00;5066608;28;20162;-58
2021/12/01 05:14:10;;;;;;;17.47;11.43;;;;;;;7.80;75.05;101283.00;5052949;28;20408;-59
2021/12/01 05:16:39;;;;;;;29.33;15.40;;;;;;;7.74;75.05;101274.78;5072431;28;20110;-59
2021/12/01 05:19:07;;;;;;;19.57;11.07;;;;;;;7.86;74.79;101274.75;5069665;28;20057;-60
2021/12/01 05:21:34;;;;;;;27.23;13.53;;;;;;;7.92;74.67;101280.19;5070871;28;20106;-59
2021/12/01 05:24:02;;;;;;;23.20;12.30;;;;;;;8.04;74.51;101285.75;5070358;28;20044;-59
2021/12/01 05:26:30;;;;;;;21.90;13.73;;;;;;;8.11;74.34;101289.22;5079918;28;20163;-59
2021/12/01 05:28:57;;;;;;;20.97;11.57;;;;;;;8.08;74.04;101259.13;5070362;28;20429;-63
2021/12/01 05:31:24;;;;;;;16.47;8.87;;;;;;;8.26;73.84;101281.19;5072233;28;20135;-63
2021/12/01 05:33:51;;;;;;;19.10;10.87;;;;;;;7.98;73.85;101236.66;5074683;28;20045;-63
2021/12/01 05:36:18;;;;;;;24.13;12.73;;;;;;;8.11;73.75;101249.44;5084633;28;20052;-63
2021/12/01 05:38:45;;;;;;;27.07;15.33;;;;;;;8.32;73.42;101269.06;5083312;28;20147;-62
2021/12/01 05:41:12;;;;;;;24.37;13.83;;;;;;;8.49;73.05;101268.31;5073990;28;20121;-62
2021/12/01 05:43:39;;;;;;;24.13;15.30;;;;;;;8.62;72.57;101269.94;5074228;28;20131;-54
2021/12/01 05:46:06;;;;;;;23.10;15.33;;;;;;;8.80;72.25;101264.13;5076720;28;20500;-59
2021/12/01 05:48:33;;;;;;;25.00;13.17;;;;;;;8.84;72.24;101265.31;5072906;28;20040;-63
2021/12/01 05:51:00;;;;;;;23.70;13.70;;;;;;;8.84;71.96;101258.91;5080626;28;20127;-63
2021/12/01 05:53:27;;;;;;;24.03;13.37;;;;;;;8.92;72.11;101266.84;5084402;28;20079;-60
2021/12/01 05:55:54;;;;;;;25.97;13.73;;;;;;;8.63;72.64;101244.63;5081550;28;20045;-60
2021/12/01 05:58:20;;;;;;;22.17;12.30;;;;;;;8.77;72.43;101273.00;5073688;28;20445;-59
2021/12/01 06:00:47;;;;;;;21.13;11.87;;;;;;;8.73;72.47;101272.66;5071941;28;20045;-58
2021/12/01 06:03:14;;;;;;;18.00;10.30;;;;;;;8.68;72.09;101255.88;5073768;28;20040;-60
2021/12/01 06:05:43;;;;;;;15.33;7.97;;;;;;;8.60;72.48;101253.47;5074053;28;20131;-61
2021/12/01 06:08:10;;;;;;;14.37;8.27;;;;;;;8.36;72.87;101229.59;5073746;28;20484;-59
2021/12/01 06:10:40;;;;;;;19.27;10.37;;;;;;;8.52;72.42;101232.47;5073458;28;20127;-58
2021/12/01 06:13:09;;;;;;;13.40;8.20;;;;;;;8.50;72.73;101256.06;5085770;28;20063;-60
2021/12/01 06:15:36;;;;;;;22.53;9.93;;;;;;;8.21;72.46;101199.56;5073957;28;20123;-61
2021/12/01 06:18:04;;;;;;;19.90;11.27;;;;;;;8.47;72.57;101253.78;5073910;28;20053;-58
2021/12/01 06:20:31;;;;;;;21.30;12.10;;;;;;;8.49;72.61;101243.25;5067451;28;20094;-63
2021/12/01 06:22:58;;;;;;;22.73;13.00;;;;;;;8.53;72.51;101248.06;5078860;28;20125;-60
2021/12/01 06:25:25;;;;;;;23.03;13.23;;;;;;;8.52;72.26;101245.53;5082537;28;20147;-61
2021/12/01 06:27:55;;;;;;;23.40;13.43;;;;;;;8.61;72.25;101244.00;5082734;28;20479;-61
2021/12/01 06:30:25;;;;;;;28.52;13.48;;;;;;;8.71;71.98;101248.94;5050781;28;20088;-60
2021/12/01 06:32:53;;;;;;;19.45;10.73;;;;;;;8.53;72.16;101228.56;5045888;28;20037;-63
2021/12/01 06:35:20;;;;;;;14.47;8.87;;;;;;;8.52;72.38;101240.81;5051024;28;20491;-65
2021/12/01 06:37:47;;;;;;;13.03;8.50;;;;;;;8.51;72.59;101221.56;5039157;28;20073;-62
2021/12/01 06:40:14;;;;;;;17.47;10.60;;;;;;;8.57;72.44;101220.56;5045748;28;20077;-60
2021/12/01 06:42:41;;;;;;;20.00;10.50;;;;;;;8.36;72.38;101197.06;5040693;28;20135;-64
2021/12/01 06:45:10;;;;;;;15.80;9.37;;;;;;;8.74;72.17;101235.34;5046108;28;20131;-60
2021/12/01 06:47:39;;;;;;;19.20;9.87;;;;;;;8.47;72.30;101190.59;5050916;28;20157;-59
2021/12/01 06:50:08;;;;;;;14.10;8.80;;;;;;;8.67;72.45;101233.81;5049543;28;20135;-61
2021/12/01 06:52:35;;;;;;;18.80;8.80;;;;;;;8.69;72.30;101246.41;5048342;28;20485;-59
2021/12/01 06:55:03;;;;;;;19.90;11.33;;;;;;;8.72;72.25;101245.91;5046953;28;20072;-60
2021/12/01 06:57:30;;;;;;;17.63;11.37;;;;;;;8.59;72.14;101234.25;5054000;28;20053;-63
2021/12/01 06:59:57;;;;;;;16.23;10.77;;;;;;;8.77;72.06;101248.75;5059370;28;20560;-64
2021/12/01 07:02:24;;;;;;;22.83;12.73;;;;;;;8.93;71.73;101262.97;5042427;28;20069;-59
2021/12/01 07:04:52;;;;;;;17.53;11.13;;;;;;;8.99;71.46;101261.94;5047922;28;20068;-59
2021/12/01 07:07:19;;;;;;;16.20;10.50;;;;;;;9.03;71.31;101268.72;5028723;28;20136;-61
2021/12/01 07:09:50;;;;;;;15.20;8.90;;;;;;;9.09;71.16;101272.41;5037858;28;20080;-59
2021/12/01 07:12:17;;;;;;;19.67;10.77;;;;;;;9.10;71.12;101268.56;5041564;28;20172;-59
2021/12/01 07:14:44;;;;;;;19.53;11.70;;;;;;;8.84;71.10;101219.91;5026484;28;20080;-59
2021/12/01 07:17:12;;;;;;;22.90;12.23;;;;;;;9.20;70.91;101266.78;5040341;28;20042;-59
2021/12/01 07:19:38;;;;;;;19.47;11.53;;;;;;;9.28;70.66;101271.06;5047468;28;20041;-58
2021/12/01 07:22:05;;;;;;;18.03;11.30;;;;;;;9.02;70.85;101250.28;5045631;28;20077;-61
2021/12/01 07:24:32;;;;;;;19.30;11.10;;;;;;;9.10;70.95;101280.53;5051519;28;20069;-59
2021/12/01 07:26:59;;;;;;;17.63;11.57;;;;;;;9.22;70.56;101277.66;5048110;28;20076;-60
2021/12/01 07:29:26;;;;;;;28.20;12.53;;;;;;;9.27;70.47;101268.56;5048478;28;20480;-59
2021/12/01 07:31:54;;;;;;;17.73;10.57;;;;;;;9.17;70.61;101261.72;5036739;28;20076;-59
2021/12/01 07:34:21;;;;;;;18.10;10.17;;;;;;;8.98;71.12;101252.75;5046620;28;20120;-59
2021/12/01 07:36:48;;;;;;;15.40;9.33;;;;;;;8.79;71.41;101248.53;5052212;28;20072;-59
2021/12/01 07:39:20;;;;;;;42.80;12.93;;;;;;;8.65;71.36;101234.09;5051759;28;20052;-59
2021/12/01 07:41:48;;;;;;;20.27;12.07;;;;;;;8.70;71.38;101241.69;5055365;28;20049;-58
2021/12/01 07:44:15;;;;;;;18.20;11.47;;;;;;;8.70;71.88;101256.44;5034299;28;20049;-58
2021/12/01 07:46:42;;;;;;;16.33;9.50;;;;;;;8.66;72.17;101260.00;5048262;28;20095;-58
2021/12/01 07:49:09;;;;;;;18.67;11.73;;;;;;;8.66;72.19;101262.78;5062723;28;20503;-59
2021/12/01 07:51:36;;;;;;;21.33;11.67;;;;;;;8.66;72.22;101273.91;5044067;28;20136;-59
2021/12/01 07:54:03;;;;;;;20.17;11.00;;;;;;;8.64;72.28;101259.38;5045159;28;20137;-59
2021/12/01 07:56:31;;;;;;;22.33;10.07;;;;;;;8.68;72.30;101260.56;5051343;28;20080;-58
2021/12/01 07:58:58;;;;;;;23.53;12.77;;;;;;;8.68;72.62;101255.00;5049151;28;20077;-59
2021/12/01 08:01:25;;;;;;;15.10;10.53;;;;;;;8.44;72.36;101209.75;5056124;28;20567;-59
2021/12/01 08:03:51;;;;;;;12.73;6.70;;;;;;;8.52;72.72;101223.28;5051213;28;20114;-59
2021/12/01 08:06:19;;;;;;;15.77;9.97;;;;;;;8.62;72.78;101239.31;5050349;28;20136;-59
2021/12/01 08:08:46;;;;;;;13.03;8.23;;;;;;;8.51;73.46;101249.41;5047265;28;20079;-60
2021/12/01 08:11:13;;;;;;;15.63;8.93;;;;;;;8.49;73.65;101241.31;5045608;28;20560;-59
2021/12/01 08:13:40;;;;;;;14.83;7.13;;;;;;;8.36;74.27;101243.53;5050525;28;20111;-59
2021/12/01 08:16:09;;;;;;;23.05;12.32;;;;;;;7.92;74.13;101157.81;5046285;28;20055;-59
2021/12/01 08:18:36;;;;;;;26.70;14.33;;;;;;;8.20;74.66;101226.50;5051634;28;20132;-58
2021/12/01 08:21:03;;;;;;;12.93;8.60;;;;;;;8.17;75.46;101249.31;5053028;28;20503;-60
2021/12/01 08:23:30;;;;;;;12.53;7.63;;;;;;;8.10;75.55;101231.03;5055801;28;20049;-61
2021/12/01 08:25:57;;;;;;;18.50;8.83;;;;;;;7.89;76.40;101218.66;5050102;28;20477;-59
2021/12/01 08:28:25;;;;;;;22.87;11.27;;;;;;;8.16;76.08;101255.09;5037781;28;20531;-59
2021/12/01 08:30:52;;;;;;;19.70;13.70;;;;;;;8.29;75.56;101277.06;5064641;28;20186;-59
2021/12/01 08:33:19;;;;;;;18.57;9.43;;;;;;;8.29;75.67;101263.16;5083261;28;20128;-59
2021/12/01 08:35:46;;;;;;;21.37;12.80;;;;;;;8.45;75.37;101272.69;5069078;28;20037;-59
2021/12/01 08:38:14;;;;;;;18.83;12.93;;;;;;;8.42;75.68;101273.19;5074681;28;20047;-60
2021/12/01 08:40:40;;;;;;;21.97;12.83;;;;;;;8.48;75.80;101286.94;5073454;28;20074;-60
2021/12/01 08:43:08;;;;;;;21.27;12.83;;;;;;;8.49;75.73;101269.16;5085212;28;20044;-60
2021/12/01 08:45:35;;;;;;;22.07;12.90;;;;;;;8.51;75.75;101266.09;5072297;28;20125;-60
2021/12/01 08:48:03;;;;;;;15.77;10.70;;;;;;;8.60;75.92;101277.69;5074505;28;20040;-60
2021/12/01 08:50:31;;;;;;;16.47;10.40;;;;;;;8.57;76.42;101284.59;5070281;28;20094;-60
2021/12/01 08:52:58;;;;;;;22.37;12.33;;;;;;;8.52;76.10;101259.47;5075472;28;20075;-60
2021/12/01 08:55:26;;;;;;;21.67;12.33;;;;;;;8.61;76.39;101285.78;5076643;28;20564;-60
2021/12/01 08:58:06;;;;;;;23.95;12.75;;;;;;;8.68;76.50;101294.84;5071949;28;20128;-60
2021/12/01 09:00:38;;;;;;;21.37;11.07;;;;;;;8.62;76.39;101268.00;5080965;28;20055;-59
2021/12/01 09:03:06;;;;;;;16.93;10.10;;;;;;;8.84;76.27;101287.59;5052415;28;20049;-59
2021/12/01 09:05:33;;;;;;;14.60;8.43;;;;;;;8.80;77.08;101296.72;5077699;28;20131;-60
2021/12/01 09:08:00;;;;;;;24.03;12.67;;;;;;;8.83;76.99;101299.84;5076730;28;20094;-60
2021/12/01 09:10:27;;;;;;;18.37;10.10;;;;;;;8.92;76.78;101290.00;5094351;28;20091;-60
2021/12/01 09:12:53;;;;;;;7.67;4.03;;;;;;;8.97;77.07;101292.00;5073330;28;20120;-59
2021/12/01 09:15:20;;;;;;;16.77;9.60;;;;;;;8.90;76.88;101269.06;5072104;28;20863;-59
2021/12/01 09:17:47;;;;;;;17.50;9.73;;;;;;;8.92;77.54;101286.34;5074527;28;20191;-59
2021/12/01 09:20:14;;;;;;;11.67;7.83;;;;;;;8.61;77.60;101238.44;5074412;28;20087;-59
2021/12/01 09:22:42;;;;;;;11.57;7.93;;;;;;;8.86;77.74;101270.66;5073298;28;20080;-59
2021/12/01 09:25:09;;;;;;;10.63;5.47;;;;;;;8.83;78.31;101280.34;5056456;28;20049;-60
2021/12/01 09:27:36;;;;;;;9.17;5.23;;;;;;;8.81;78.84;101282.53;5073775;28;20084;-60
2021/12/01 09:30:05;;;;;;;12.57;6.67;;;;;;;8.71;79.10;101280.41;5074869;28;20056;-60
2021/12/01 09:32:37;;;;;;;;;;;;;;;8.64;79.86;101279.72;5063433;28;20053;-60
2021/12/01 09:35:06;;;;;;;16.17;10.80;;;;;;;8.63;79.59;101254.91;5072413;28;20011;-59
2021/12/01 09:37:34;;;;;;;10.40;7.47;;;;;;;8.88;79.35;101282.38;5081751;28;20124;-60
2021/12/01 09:40:03;;;;;;;10.90;8.20;;;;;;;8.80;79.35;101246.59;5081455;28;20067;-59
2021/12/01 09:42:31;;;;;;;12.27;6.67;;;;;;;8.87;79.59;101262.03;5074582;28;20270;-58
2021/12/01 09:44:58;;;;;;;17.03;10.93;;;;;;;9.08;78.97;101266.00;5091710;28;20483;-58
2021/12/01 09:47:25;;;;;;;19.20;12.53;;;;;;;9.21;78.81;101282.38;5074564;28;20131;-59
2021/12/01 09:49:52;;;;;;;11.77;7.43;;;;;;;9.28;78.62;101261.88;5074407;28;20041;-59
2021/12/01 09:52:19;;;;;;;11.47;7.50;;;;;;;9.34;78.30;101267.28;5073471;28;20551;-60
2021/12/01 09:54:46;;;;;;;14.60;9.50;;;;;;;9.31;78.00;101233.50;5077569;28;20131;-64
2021/12/01 09:57:13;;;;;;;13.07;8.00;;;;;;;9.27;78.35;101227.59;5071250;28;20499;-62
2021/12/01 09:59:41;;;;;;;15.93;10.37;;;;;;;9.41;78.38;101253.16;5066270;28;20135;-62
2021/12/01 10:02:11;;;;;;;11.13;6.40;;;;;;;9.22;78.62;101227.50;5082640;28;20084;-67
2021/12/01 10:04:38;;;;;;;13.27;6.75;;;;;;;9.28;79.26;101253.50;5077455;28;20119;-62
2021/12/01 10:07:14;;;;;;;15.37;7.97;;;;;;;9.14;79.32;101228.78;5070887;28;20119;-60
2021/12/01 10:09:43;;;;;;;12.87;7.00;;;;;;;9.27;79.38;101233.16;5074457;28;20051;-61
2021/12/01 10:12:11;;;;;;;5.73;3.93;;;;;;;9.37;79.38;101243.63;5054507;28;20080;-60
2021/12/01 10:14:44;;;;;;;19.43;11.80;;;;;;;9.43;79.04;101228.63;5086347;28;20413;-62
2021/12/01 10:17:11;;;;;;;18.27;10.40;;;;;;;9.62;78.76;101249.56;5071540;28;20106;-63
2021/12/01 10:19:38;;;;;;;15.47;11.17;;;;;;;9.80;78.33;101248.41;5070154;28;20131;-64
2021/12/01 10:22:10;;;;;;;19.30;10.87;;;;;;;9.83;78.14;101233.94;5075719;28;20426;-61
2021/12/01 10:24:39;;;;;;;13.13;8.17;;;;;;;9.99;77.99;101248.94;5073315;28;20058;-61
2021/12/01 10:27:12;;;;;;;20.65;12.55;;;;;;;10.14;77.64;101237.94;5073343;28;20131;-61
2021/12/01 10:29:45;;;;;;;19.13;11.50;;;;;;;10.30;77.40;101227.00;5070474;28;20142;-62
2021/12/01 10:32:13;;;;;;;24.33;13.07;;;;;;;10.46;77.15;101230.78;5056035;28;20079;-62
2021/12/01 10:34:49;;;;;;;28.67;13.60;;;;;;;10.44;77.44;101233.84;5069155;28;20120;-62
2021/12/01 10:37:30;;;;;;;34.43;16.33;;;;;;;10.39;77.43;101231.88;5072211;28;20044;-59
2021/12/01 10:40:24;;;;;;;22.63;12.73;;;;;;;10.26;77.70;101231.44;5075156;28;20074;-60
2021/12/01 10:42:56;;;;;;;25.13;14.83;;;;;;;10.25;77.98;101229.69;5053240;28;20052;-60
2021/12/01 10:45:26;;;;;;;18.27;10.23;;;;;;;10.25;77.85;101215.75;5062787;28;20087;-60
2021/12/01 10:47:52;;;;;;;20.20;10.90;;;;;;;10.29;77.86;101219.72;5077129;28;20068;-60
2021/12/01 10:50:24;;;;;;;23.53;12.77;;;;;;;10.31;77.85;101209.97;5054097;28;20083;-60
2021/12/01 10:53:00;;;;;;;17.00;10.77;;;;;;;10.35;77.94;101207.50;5068542;28;20086;-60
2021/12/01 10:55:27;;;;;;;20.53;11.80;;;;;;;10.38;77.51;101184.66;5074352;28;20045;-60
2021/12/01 10:58:06;;;;;;;26.17;13.70;;;;;;;10.36;77.99;101198.03;5072372;28;20140;-60
2021/12/01 11:00:47;;;;;;;26.70;12.90;;;;;;;10.33;78.28;101191.03;5078782;28;20087;-62
2021/12/01 11:03:18;;;;;;;22.13;12.50;;;;;;;10.27;78.54;101177.28;5073273;28;20040;-60
2021/12/01 11:05:49;;;;;;;26.97;13.33;;;;;;;10.26;78.76;101164.44;5078788;28;20040;-59
2021/12/01 11:08:21;;;;;;;18.73;10.70;;;;;;;10.48;78.23;101162.41;5073917;28;20128;-59
2021/12/01 11:11:03;;;;;;;20.00;10.93;;;;;;;10.59;78.48;101157.75;5071130;28;20052;-59
2021/12/01 11:13:30;;;;;;;25.67;11.60;;;;;;;10.74;78.25;101162.66;5076186;28;20052;-59
2021/12/01 11:15:59;;;;;;;15.87;10.17;;;;;;;10.77;78.57;101131.34;5054950;28;20076;-59
2021/12/01 11:18:47;;;;;;;17.67;10.57;;;;;;;10.76;78.54;101112.91;5073137;28;20403;-59
2021/12/01 11:21:22;;;;;;;16.43;9.37;;;;;;;11.03;78.53;101130.44;5073409;28;20058;-60
2021/12/01 11:23:52;;;;;;;18.30;10.17;;;;;;;11.09;78.35;101123.75;5051680;28;20043;-59
2021/12/01 11:26:26;;;;;;;19.23;9.40;;;;;;;11.20;78.35;101133.03;5072133;28;20127;-60
2021/12/01 11:28:58;;;;;;;18.57;10.90;;;;;;;11.30;78.20;101135.91;5071005;28;20127;-60
2021/12/01 11:31:32;;;;;;;22.97;12.63;;;;;;;11.29;78.63;101113.81;5066514;28;20072;-60
2021/12/01 11:34:03;;;;;;;19.33;12.07;;;;;;;11.43;78.82;101117.81;5067601;28;20040;-60